sensor_id;sensor_type;location;lat;lon;timestamp;temperature;humidity
30186;DHT22;31152;49.190;8.122;2022-12-29T00:00:29;10.40;99.90
30186;DHT22;31152;49.190;8.122;2022-12-29T00:02:56;10.30;99.90
30186;DHT22;31152;49.190;8.122;2022-12-29T00:05:23;10.20;99.90
30186;DHT22;31152;49.190;8.122;2022-12-29T00:07:50;10.10;99.90
30186;DHT22;31152;49.190;8.122;2022-12-29T00:10:17;10.10;99.90
30186;DHT22;31152;49.190;8.122;2022-12-29T00:12:44;10.10;99.90
30186;DHT22;31152;49.190;8.122;2022-12-29T00:15:29;10.10;99.90
30186;DHT22;31152;49.190;8.122;2022-12-29T00:18:06;10.20;99.90
30186;DHT22;31152;49.190;8.122;2022-12-29T00:20:35;10.20;99.90
30186;DHT22;31152;49.190;8.122;2022-12-29T00:23:21;10.40;99.90
30186;DHT22;31152;49.190;8.122;2022-12-29T00:26:16;10.70;99.90
30186;DHT22;31152;49.190;8.122;2022-12-29T00:29:04;11.30;99.90
30186;DHT22;31152;49.190;8.122;2022-12-29T00:31:50;11.60;99.90
30186;DHT22;31152;49.190;8.122;2022-12-29T00:34:35;12.00;99.90
30186;DHT22;31152;49.190;8.122;2022-12-29T00:37:43;12.20;99.90
30186;DHT22;31152;49.190;8.122;2022-12-29T00:40:30;12.30;99.90
30186;DHT22;31152;49.190;8.122;2022-12-29T00:43:16;12.40;99.90
30186;DHT22;31152;49.190;8.122;2022-12-29T00:46:01;12.40;99.90
30186;DHT22;31152;49.190;8.122;2022-12-29T00:48:28;12.50;99.90
30186;DHT22;31152;49.190;8.122;2022-12-29T00:51:13;12.50;99.90
30186;DHT22;31152;49.190;8.122;2022-12-29T00:53:40;12.40;99.90
30186;DHT22;31152;49.190;8.122;2022-12-29T00:56:07;12.40;99.90
30186;DHT22;31152;49.190;8.122;2022-12-29T00:58:33;12.30;99.90
30186;DHT22;31152;49.190;8.122;2022-12-29T01:01:04;12.20;99.90
30186;DHT22;31152;49.190;8.122;2022-12-29T01:03:32;12.20;99.90
30186;DHT22;31152;49.190;8.122;2022-12-29T01:06:03;12.20;99.90
30186;DHT22;31152;49.190;8.122;2022-12-29T01:08:31;12.20;99.90
30186;DHT22;31152;49.190;8.122;2022-12-29T01:10:59;12.20;99.90
30186;DHT22;31152;49.190;8.122;2022-12-29T01:13:29;12.20;99.90
30186;DHT22;31152;49.190;8.122;2022-12-29T01:15:58;12.20;99.90
30186;DHT22;31152;49.190;8.122;2022-12-29T01:18:26;12.10;99.90
30186;DHT22;31152;49.190;8.122;2022-12-29T01:21:00;12.10;99.90
30186;DHT22;31152;49.190;8.122;2022-12-29T01:23:28;12.20;99.90
30186;DHT22;31152;49.190;8.122;2022-12-29T01:25:55;12.10;99.90
30186;DHT22;31152;49.190;8.122;2022-12-29T01:28:22;12.20;99.90
30186;DHT22;31152;49.190;8.122;2022-12-29T01:30:54;12.10;99.90
30186;DHT22;31152;49.190;8.122;2022-12-29T01:33:21;12.10;99.90
30186;DHT22;31152;49.190;8.122;2022-12-29T01:35:48;12.10;99.90
30186;DHT22;31152;49.190;8.122;2022-12-29T01:38:16;12.00;99.90
30186;DHT22;31152;49.190;8.122;2022-12-29T01:40:45;11.90;99.90
30186;DHT22;31152;49.190;8.122;2022-12-29T01:43:13;11.80;99.90
30186;DHT22;31152;49.190;8.122;2022-12-29T01:45:48;11.70;99.90
30186;DHT22;31152;49.190;8.122;2022-12-29T01:48:19;11.70;99.90
30186;DHT22;31152;49.190;8.122;2022-12-29T01:50:50;11.60;99.90
30186;DHT22;31152;49.190;8.122;2022-12-29T01:53:21;11.70;99.90
30186;DHT22;31152;49.190;8.122;2022-12-29T01:56:03;11.60;99.90
30186;DHT22;31152;49.190;8.122;2022-12-29T01:58:35;11.70;99.90
30186;DHT22;31152;49.190;8.122;2022-12-29T02:01:04;11.70;99.90
30186;DHT22;31152;49.190;8.122;2022-12-29T02:03:33;11.70;99.90
30186;DHT22;31152;49.190;8.122;2022-12-29T02:06:14;11.70;99.90
30186;DHT22;31152;49.190;8.122;2022-12-29T02:08:46;11.70;99.90
30186;DHT22;31152;49.190;8.122;2022-12-29T02:11:14;11.60;99.90
30186;DHT22;31152;49.190;8.122;2022-12-29T02:13:42;11.60;99.90
30186;DHT22;31152;49.190;8.122;2022-12-29T02:16:30;11.60;99.90
30186;DHT22;31152;49.190;8.122;2022-12-29T02:21:57;11.70;99.90
30186;DHT22;31152;49.190;8.122;2022-12-29T02:30:33;11.60;99.90
30186;DHT22;31152;49.190;8.122;2022-12-29T02:36:07;11.70;99.90
30186;DHT22;31152;49.190;8.122;2022-12-29T02:44:15;11.70;99.90
30186;DHT22;31152;49.190;8.122;2022-12-29T02:52:16;11.70;99.90
30186;DHT22;31152;49.190;8.122;2022-12-29T02:54:43;11.60;99.90
30186;DHT22;31152;49.190;8.122;2022-12-29T03:00:07;11.60;99.90
30186;DHT22;31152;49.190;8.122;2022-12-29T03:02:46;11.50;99.90
30186;DHT22;31152;49.190;8.122;2022-12-29T03:16:30;11.20;99.90
30186;DHT22;31152;49.190;8.122;2022-12-29T03:21:57;11.10;99.90
30186;DHT22;31152;49.190;8.122;2022-12-29T03:24:47;11.10;99.90
30186;DHT22;31152;49.190;8.122;2022-12-29T03:27:25;11.00;99.90
30186;DHT22;31152;49.190;8.122;2022-12-29T03:30:01;11.00;99.90
30186;DHT22;31152;49.190;8.122;2022-12-29T03:32:33;10.90;99.90
30186;DHT22;31152;49.190;8.122;2022-12-29T03:35:03;10.80;99.90
30186;DHT22;31152;49.190;8.122;2022-12-29T03:37:36;10.80;99.90
30186;DHT22;31152;49.190;8.122;2022-12-29T03:40:04;10.80;99.90
30186;DHT22;31152;49.190;8.122;2022-12-29T03:42:35;10.70;99.90
30186;DHT22;31152;49.190;8.122;2022-12-29T03:45:07;10.70;99.90
30186;DHT22;31152;49.190;8.122;2022-12-29T03:47:34;10.70;99.90
30186;DHT22;31152;49.190;8.122;2022-12-29T03:50:03;10.70;99.90
30186;DHT22;31152;49.190;8.122;2022-12-29T03:52:30;10.70;99.90
30186;DHT22;31152;49.190;8.122;2022-12-29T03:54:59;10.80;99.90
30186;DHT22;31152;49.190;8.122;2022-12-29T03:57:25;11.00;99.90
30186;DHT22;31152;49.190;8.122;2022-12-29T03:59:52;11.30;99.90
30186;DHT22;31152;49.190;8.122;2022-12-29T04:02:21;11.40;99.90
30186;DHT22;31152;49.190;8.122;2022-12-29T04:04:48;11.60;99.90
30186;DHT22;31152;49.190;8.122;2022-12-29T04:07:15;11.70;99.90
30186;DHT22;31152;49.190;8.122;2022-12-29T04:09:43;11.80;99.90
30186;DHT22;31152;49.190;8.122;2022-12-29T04:12:10;11.90;99.90
30186;DHT22;31152;49.190;8.122;2022-12-29T04:14:36;12.00;99.90
30186;DHT22;31152;49.190;8.122;2022-12-29T04:17:03;12.10;99.90
30186;DHT22;31152;49.190;8.122;2022-12-29T04:19:30;12.10;99.90
30186;DHT22;31152;49.190;8.122;2022-12-29T04:21:57;12.10;99.90
30186;DHT22;31152;49.190;8.122;2022-12-29T04:24:26;12.10;99.90
30186;DHT22;31152;49.190;8.122;2022-12-29T04:26:53;12.20;99.90
30186;DHT22;31152;49.190;8.122;2022-12-29T04:29:19;12.20;99.90
30186;DHT22;31152;49.190;8.122;2022-12-29T04:31:46;12.30;99.90
30186;DHT22;31152;49.190;8.122;2022-12-29T04:34:13;12.30;99.90
30186;DHT22;31152;49.190;8.122;2022-12-29T04:36:46;12.30;99.90
30186;DHT22;31152;49.190;8.122;2022-12-29T04:39:18;12.40;99.90
30186;DHT22;31152;49.190;8.122;2022-12-29T04:41:44;12.40;99.90
30186;DHT22;31152;49.190;8.122;2022-12-29T04:44:13;12.40;99.90
30186;DHT22;31152;49.190;8.122;2022-12-29T04:46:40;12.20;99.90
30186;DHT22;31152;49.190;8.122;2022-12-29T04:49:07;12.10;99.90
30186;DHT22;31152;49.190;8.122;2022-12-29T04:51:37;12.00;99.90
30186;DHT22;31152;49.190;8.122;2022-12-29T04:54:04;12.00;99.90
30186;DHT22;31152;49.190;8.122;2022-12-29T04:56:31;11.90;99.90
30186;DHT22;31152;49.190;8.122;2022-12-29T04:59:00;11.90;99.90
30186;DHT22;31152;49.190;8.122;2022-12-29T05:01:26;11.90;99.90
30186;DHT22;31152;49.190;8.122;2022-12-29T05:03:53;11.70;99.90
30186;DHT22;31152;49.190;8.122;2022-12-29T05:06:20;11.70;99.90
30186;DHT22;31152;49.190;8.122;2022-12-29T05:08:47;11.60;99.90
30186;DHT22;31152;49.190;8.122;2022-12-29T05:11:13;11.50;99.90
30186;DHT22;31152;49.190;8.122;2022-12-29T05:13:44;11.50;99.90
30186;DHT22;31152;49.190;8.122;2022-12-29T05:16:13;11.40;99.90
30186;DHT22;31152;49.190;8.122;2022-12-29T05:18:40;11.50;99.90
30186;DHT22;31152;49.190;8.122;2022-12-29T05:21:06;11.50;99.90
30186;DHT22;31152;49.190;8.122;2022-12-29T05:23:35;11.50;99.90
30186;DHT22;31152;49.190;8.122;2022-12-29T05:26:02;11.60;99.90
30186;DHT22;31152;49.190;8.122;2022-12-29T05:28:29;11.60;99.90
30186;DHT22;31152;49.190;8.122;2022-12-29T05:30:56;11.60;99.90
30186;DHT22;31152;49.190;8.122;2022-12-29T05:33:22;11.70;99.90
30186;DHT22;31152;49.190;8.122;2022-12-29T05:35:51;11.70;99.90
30186;DHT22;31152;49.190;8.122;2022-12-29T05:38:18;11.70;99.90
30186;DHT22;31152;49.190;8.122;2022-12-29T05:40:47;11.70;99.90
30186;DHT22;31152;49.190;8.122;2022-12-29T05:43:14;11.80;99.90
30186;DHT22;31152;49.190;8.122;2022-12-29T05:45:41;11.80;99.90
30186;DHT22;31152;49.190;8.122;2022-12-29T05:48:08;11.90;99.90
30186;DHT22;31152;49.190;8.122;2022-12-29T05:50:34;11.90;99.90
30186;DHT22;31152;49.190;8.122;2022-12-29T05:53:01;11.90;99.90
30186;DHT22;31152;49.190;8.122;2022-12-29T05:55:30;11.90;99.90
30186;DHT22;31152;49.190;8.122;2022-12-29T05:57:59;11.70;99.90
30186;DHT22;31152;49.190;8.122;2022-12-29T06:00:26;11.70;99.90
30186;DHT22;31152;49.190;8.122;2022-12-29T06:02:53;11.60;99.90
30186;DHT22;31152;49.190;8.122;2022-12-29T06:05:20;11.50;99.90
30186;DHT22;31152;49.190;8.122;2022-12-29T06:07:47;11.50;99.90
30186;DHT22;31152;49.190;8.122;2022-12-29T06:10:13;11.50;99.90
30186;DHT22;31152;49.190;8.122;2022-12-29T06:12:40;11.50;99.90
30186;DHT22;31152;49.190;8.122;2022-12-29T06:15:09;11.50;99.90
30186;DHT22;31152;49.190;8.122;2022-12-29T06:17:36;11.50;99.90
30186;DHT22;31152;49.190;8.122;2022-12-29T06:20:06;11.50;99.90
30186;DHT22;31152;49.190;8.122;2022-12-29T06:22:36;11.50;99.90
30186;DHT22;31152;49.190;8.122;2022-12-29T06:25:05;11.50;99.90
30186;DHT22;31152;49.190;8.122;2022-12-29T06:27:32;11.40;99.90
30186;DHT22;31152;49.190;8.122;2022-12-29T06:29:59;11.40;99.90
30186;DHT22;31152;49.190;8.122;2022-12-29T06:32:26;11.30;99.90
30186;DHT22;31152;49.190;8.122;2022-12-29T06:34:53;11.40;99.90
30186;DHT22;31152;49.190;8.122;2022-12-29T06:37:22;11.30;99.90
30186;DHT22;31152;49.190;8.122;2022-12-29T06:39:49;11.30;99.90
30186;DHT22;31152;49.190;8.122;2022-12-29T06:42:15;11.30;99.90
30186;DHT22;31152;49.190;8.122;2022-12-29T06:44:42;11.30;99.90
30186;DHT22;31152;49.190;8.122;2022-12-29T06:47:09;11.30;99.90
30186;DHT22;31152;49.190;8.122;2022-12-29T06:49:36;11.30;99.90
30186;DHT22;31152;49.190;8.122;2022-12-29T06:52:03;11.20;99.90
30186;DHT22;31152;49.190;8.122;2022-12-29T06:54:38;11.20;99.90
30186;DHT22;31152;49.190;8.122;2022-12-29T06:57:05;11.20;99.90
30186;DHT22;31152;49.190;8.122;2022-12-29T06:59:32;11.10;99.90
30186;DHT22;31152;49.190;8.122;2022-12-29T07:02:04;11.10;99.90
30186;DHT22;31152;49.190;8.122;2022-12-29T07:04:33;11.10;99.90
30186;DHT22;31152;49.190;8.122;2022-12-29T07:07:03;11.10;99.90
30186;DHT22;31152;49.190;8.122;2022-12-29T07:09:31;11.10;99.90
30186;DHT22;31152;49.190;8.122;2022-12-29T07:11:59;11.00;99.90
30186;DHT22;31152;49.190;8.122;2022-12-29T07:14:26;11.10;99.90
30186;DHT22;31152;49.190;8.122;2022-12-29T07:16:52;11.00;99.90
30186;DHT22;31152;49.190;8.122;2022-12-29T07:19:19;11.10;99.90
30186;DHT22;31152;49.190;8.122;2022-12-29T07:21:46;11.10;99.90
30186;DHT22;31152;49.190;8.122;2022-12-29T07:24:13;11.10;99.90
30186;DHT22;31152;49.190;8.122;2022-12-29T07:26:40;11.10;99.90
30186;DHT22;31152;49.190;8.122;2022-12-29T07:29:08;11.20;99.90
30186;DHT22;31152;49.190;8.122;2022-12-29T07:31:35;11.30;99.90
30186;DHT22;31152;49.190;8.122;2022-12-29T07:34:01;11.50;99.90
30186;DHT22;31152;49.190;8.122;2022-12-29T07:36:28;11.60;99.90
30186;DHT22;31152;49.190;8.122;2022-12-29T07:39:00;11.80;99.90
30186;DHT22;31152;49.190;8.122;2022-12-29T07:41:27;11.80;99.90
30186;DHT22;31152;49.190;8.122;2022-12-29T07:43:56;11.90;99.90
30186;DHT22;31152;49.190;8.122;2022-12-29T07:46:25;11.90;99.90
30186;DHT22;31152;49.190;8.122;2022-12-29T07:49:14;12.00;99.90
30186;DHT22;31152;49.190;8.122;2022-12-29T07:51:41;12.00;99.90
30186;DHT22;31152;49.190;8.122;2022-12-29T07:54:08;12.00;99.90
30186;DHT22;31152;49.190;8.122;2022-12-29T07:56:35;12.00;99.90
30186;DHT22;31152;49.190;8.122;2022-12-29T07:59:02;12.00;99.90
30186;DHT22;31152;49.190;8.122;2022-12-29T08:01:31;12.00;99.90
30186;DHT22;31152;49.190;8.122;2022-12-29T08:03:58;12.00;99.90
30186;DHT22;31152;49.190;8.122;2022-12-29T08:06:25;12.00;99.90
30186;DHT22;31152;49.190;8.122;2022-12-29T08:08:54;12.10;99.90
30186;DHT22;31152;49.190;8.122;2022-12-29T08:11:22;12.00;99.90
30186;DHT22;31152;49.190;8.122;2022-12-29T08:13:50;12.00;99.90
30186;DHT22;31152;49.190;8.122;2022-12-29T08:16:17;12.00;99.90
30186;DHT22;31152;49.190;8.122;2022-12-29T08:18:45;12.00;99.90
30186;DHT22;31152;49.190;8.122;2022-12-29T08:21:12;12.10;99.90
30186;DHT22;31152;49.190;8.122;2022-12-29T08:23:39;12.10;99.90
30186;DHT22;31152;49.190;8.122;2022-12-29T08:26:06;12.20;99.90
30186;DHT22;31152;49.190;8.122;2022-12-29T08:28:33;12.20;99.90
30186;DHT22;31152;49.190;8.122;2022-12-29T08:31:02;12.20;99.90
30186;DHT22;31152;49.190;8.122;2022-12-29T08:33:30;12.20;99.90
30186;DHT22;31152;49.190;8.122;2022-12-29T08:36:06;12.20;99.90
30186;DHT22;31152;49.190;8.122;2022-12-29T08:38:33;12.20;99.90
30186;DHT22;31152;49.190;8.122;2022-12-29T08:41:02;12.20;99.90
30186;DHT22;31152;49.190;8.122;2022-12-29T08:43:32;12.30;99.90
30186;DHT22;31152;49.190;8.122;2022-12-29T08:45:59;12.50;99.90
30186;DHT22;31152;49.190;8.122;2022-12-29T08:48:26;12.60;99.90
30186;DHT22;31152;49.190;8.122;2022-12-29T08:50:56;13.00;99.90
30186;DHT22;31152;49.190;8.122;2022-12-29T08:53:23;13.20;99.90
30186;DHT22;31152;49.190;8.122;2022-12-29T08:55:56;13.30;99.90
30186;DHT22;31152;49.190;8.122;2022-12-29T08:58:31;13.30;99.90
30186;DHT22;31152;49.190;8.122;2022-12-29T09:01:00;13.40;99.90
30186;DHT22;31152;49.190;8.122;2022-12-29T09:03:29;13.40;99.90
30186;DHT22;31152;49.190;8.122;2022-12-29T09:06:17;13.40;99.90
30186;DHT22;31152;49.190;8.122;2022-12-29T09:08:44;13.30;99.90
30186;DHT22;31152;49.190;8.122;2022-12-29T09:13:41;13.10;99.90
30186;DHT22;31152;49.190;8.122;2022-12-29T09:16:08;13.10;99.90
30186;DHT22;31152;49.190;8.122;2022-12-29T09:18:35;13.00;99.90
30186;DHT22;31152;49.190;8.122;2022-12-29T09:21:03;12.90;99.90
30186;DHT22;31152;49.190;8.122;2022-12-29T09:23:32;12.80;99.90
30186;DHT22;31152;49.190;8.122;2022-12-29T09:25:59;12.80;99.90
30186;DHT22;31152;49.190;8.122;2022-12-29T09:28:26;12.70;99.90
30186;DHT22;31152;49.190;8.122;2022-12-29T09:30:57;12.70;99.90
30186;DHT22;31152;49.190;8.122;2022-12-29T09:33:24;12.60;99.90
30186;DHT22;31152;49.190;8.122;2022-12-29T09:35:53;12.50;99.90
30186;DHT22;31152;49.190;8.122;2022-12-29T09:38:20;12.50;99.90
30186;DHT22;31152;49.190;8.122;2022-12-29T09:41:00;12.50;99.90
30186;DHT22;31152;49.190;8.122;2022-12-29T09:46:35;12.50;99.90
30186;DHT22;31152;49.190;8.122;2022-12-29T09:51:43;12.50;99.90
30186;DHT22;31152;49.190;8.122;2022-12-29T09:56:59;12.60;99.90
30186;DHT22;31152;49.190;8.122;2022-12-29T09:59:50;12.80;99.90
30186;DHT22;31152;49.190;8.122;2022-12-29T10:02:38;13.00;99.90
30186;DHT22;31152;49.190;8.122;2022-12-29T10:05:17;13.20;99.90
30186;DHT22;31152;49.190;8.122;2022-12-29T10:10:38;13.00;99.90
30186;DHT22;31152;49.190;8.122;2022-12-29T10:13:27;12.90;99.90
30186;DHT22;31152;49.190;8.122;2022-12-29T10:21:07;13.00;99.90
30186;DHT22;31152;49.190;8.122;2022-12-29T10:23:40;13.20;99.90
30186;DHT22;31152;49.190;8.122;2022-12-29T10:26:18;13.30;99.90
30186;DHT22;31152;49.190;8.122;2022-12-29T10:29:22;13.40;99.90
30186;DHT22;31152;49.190;8.122;2022-12-29T10:31:59;13.20;99.90
30186;DHT22;31152;49.190;8.122;2022-12-29T10:34:30;13.00;99.90
30186;DHT22;31152;49.190;8.122;2022-12-29T10:37:24;12.80;99.90
30186;DHT22;31152;49.190;8.122;2022-12-29T10:40:09;13.10;99.90
30186;DHT22;31152;49.190;8.122;2022-12-29T10:42:46;13.10;99.90
30186;DHT22;31152;49.190;8.122;2022-12-29T10:45:14;13.10;99.90
30186;DHT22;31152;49.190;8.122;2022-12-29T10:48:01;13.10;99.90
30186;DHT22;31152;49.190;8.122;2022-12-29T10:50:30;13.30;99.90
30186;DHT22;31152;49.190;8.122;2022-12-29T10:53:00;13.80;99.90
30186;DHT22;31152;49.190;8.122;2022-12-29T10:55:36;14.10;99.90
30186;DHT22;31152;49.190;8.122;2022-12-29T10:58:06;15.00;99.90
30186;DHT22;31152;49.190;8.122;2022-12-29T11:00:33;15.70;99.90
30186;DHT22;31152;49.190;8.122;2022-12-29T11:03:17;16.40;99.90
30186;DHT22;31152;49.190;8.122;2022-12-29T11:08:52;16.80;99.90
30186;DHT22;31152;49.190;8.122;2022-12-29T11:11:26;15.70;99.90
30186;DHT22;31152;49.190;8.122;2022-12-29T11:14:02;15.00;99.90
30186;DHT22;31152;49.190;8.122;2022-12-29T11:16:34;14.80;99.90
30186;DHT22;31152;49.190;8.122;2022-12-29T11:19:02;14.60;99.90
30186;DHT22;31152;49.190;8.122;2022-12-29T11:21:34;14.40;99.90
30186;DHT22;31152;49.190;8.122;2022-12-29T11:26:46;14.00;99.90
30186;DHT22;31152;49.190;8.122;2022-12-29T11:31:53;13.80;99.90
30186;DHT22;31152;49.190;8.122;2022-12-29T11:34:35;14.10;99.90
30186;DHT22;31152;49.190;8.122;2022-12-29T11:37:05;14.50;99.90
30186;DHT22;31152;49.190;8.122;2022-12-29T11:39:55;15.10;99.90
30186;DHT22;31152;49.190;8.122;2022-12-29T11:42:23;15.80;99.90
30186;DHT22;31152;49.190;8.122;2022-12-29T11:44:55;17.30;99.90
30186;DHT22;31152;49.190;8.122;2022-12-29T11:47:30;17.70;99.90
30186;DHT22;31152;49.190;8.122;2022-12-29T11:50:01;17.90;99.90
30186;DHT22;31152;49.190;8.122;2022-12-29T11:52:32;18.50;99.20
30186;DHT22;31152;49.190;8.122;2022-12-29T11:55:04;18.20;98.30
30186;DHT22;31152;49.190;8.122;2022-12-29T11:57:33;17.80;99.20
30186;DHT22;31152;49.190;8.122;2022-12-29T12:00:23;17.80;98.70
30186;DHT22;31152;49.190;8.122;2022-12-29T12:03:00;17.10;98.80
30186;DHT22;31152;49.190;8.122;2022-12-29T12:08:16;16.40;99.90
30186;DHT22;31152;49.190;8.122;2022-12-29T12:10:53;16.60;99.90
30186;DHT22;31152;49.190;8.122;2022-12-29T12:13:34;16.70;99.90
30186;DHT22;31152;49.190;8.122;2022-12-29T12:18:53;16.90;99.80
30186;DHT22;31152;49.190;8.122;2022-12-29T12:21:38;17.00;99.90
30186;DHT22;31152;49.190;8.122;2022-12-29T12:27:24;15.80;99.90
30186;DHT22;31152;49.190;8.122;2022-12-29T12:30:33;15.20;99.90
30186;DHT22;31152;49.190;8.122;2022-12-29T12:36:04;14.10;99.90
30186;DHT22;31152;49.190;8.122;2022-12-29T12:38:48;13.30;99.90
30186;DHT22;31152;49.190;8.122;2022-12-29T12:45:03;11.90;99.90
30186;DHT22;31152;49.190;8.122;2022-12-29T12:48:13;11.80;99.90
30186;DHT22;31152;49.190;8.122;2022-12-29T12:59:30;12.30;99.90
30186;DHT22;31152;49.190;8.122;2022-12-29T13:05:25;13.30;99.90
30186;DHT22;31152;49.190;8.122;2022-12-29T13:08:05;13.80;99.90
30186;DHT22;31152;49.190;8.122;2022-12-29T13:10:56;14.10;99.90
30186;DHT22;31152;49.190;8.122;2022-12-29T13:22:28;14.80;99.90
30186;DHT22;31152;49.190;8.122;2022-12-29T13:30:43;14.80;99.90
30186;DHT22;31152;49.190;8.122;2022-12-29T13:33:27;14.90;99.90
30186;DHT22;31152;49.190;8.122;2022-12-29T13:36:03;15.00;99.90
30186;DHT22;31152;49.190;8.122;2022-12-29T13:38:39;15.00;99.90
30186;DHT22;31152;49.190;8.122;2022-12-29T13:41:19;14.80;99.90
30186;DHT22;31152;49.190;8.122;2022-12-29T13:43:47;14.50;99.90
30186;DHT22;31152;49.190;8.122;2022-12-29T13:46:26;14.40;99.90
30186;DHT22;31152;49.190;8.122;2022-12-29T13:49:01;14.30;99.90
30186;DHT22;31152;49.190;8.122;2022-12-29T13:51:29;14.00;99.90
30186;DHT22;31152;49.190;8.122;2022-12-29T14:05:02;12.30;99.90
30186;DHT22;31152;49.190;8.122;2022-12-29T14:07:37;12.10;99.90
30186;DHT22;31152;49.190;8.122;2022-12-29T14:10:05;11.80;99.90
30186;DHT22;31152;49.190;8.122;2022-12-29T14:12:40;11.60;99.90
30186;DHT22;31152;49.190;8.122;2022-12-29T14:17:43;11.20;99.90
30186;DHT22;31152;49.190;8.122;2022-12-29T14:20:25;11.00;99.90
30186;DHT22;31152;49.190;8.122;2022-12-29T14:23:47;10.80;99.90
30186;DHT22;31152;49.190;8.122;2022-12-29T14:28:56;10.60;99.90
30186;DHT22;31152;49.190;8.122;2022-12-29T14:39:02;10.60;99.90
30186;DHT22;31152;49.190;8.122;2022-12-29T14:41:40;10.60;99.90
30186;DHT22;31152;49.190;8.122;2022-12-29T14:44:19;10.60;99.90
30186;DHT22;31152;49.190;8.122;2022-12-29T14:47:00;10.60;99.90
30186;DHT22;31152;49.190;8.122;2022-12-29T14:49:30;10.60;99.90
30186;DHT22;31152;49.190;8.122;2022-12-29T14:52:26;10.70;99.90
30186;DHT22;31152;49.190;8.122;2022-12-29T14:54:58;10.60;99.90
30186;DHT22;31152;49.190;8.122;2022-12-29T15:00:04;10.70;99.90
30186;DHT22;31152;49.190;8.122;2022-12-29T15:02:36;10.70;99.90
30186;DHT22;31152;49.190;8.122;2022-12-29T15:05:16;10.80;99.90
30186;DHT22;31152;49.190;8.122;2022-12-29T15:07:51;10.80;99.90
30186;DHT22;31152;49.190;8.122;2022-12-29T15:10:21;10.80;99.90
30186;DHT22;31152;49.190;8.122;2022-12-29T15:12:53;10.70;99.90
30186;DHT22;31152;49.190;8.122;2022-12-29T15:15:26;10.70;99.90
30186;DHT22;31152;49.190;8.122;2022-12-29T15:17:53;10.60;99.90
30186;DHT22;31152;49.190;8.122;2022-12-29T15:20:26;10.60;99.90
30186;DHT22;31152;49.190;8.122;2022-12-29T15:23:12;10.50;99.90
30186;DHT22;31152;49.190;8.122;2022-12-29T15:26:07;10.50;99.90
30186;DHT22;31152;49.190;8.122;2022-12-29T15:28:43;10.40;99.90
30186;DHT22;31152;49.190;8.122;2022-12-29T15:31:18;10.30;99.90
30186;DHT22;31152;49.190;8.122;2022-12-29T15:34:02;10.30;99.90
30186;DHT22;31152;49.190;8.122;2022-12-29T15:36:39;10.30;99.90
30186;DHT22;31152;49.190;8.122;2022-12-29T15:39:29;10.20;99.90
30186;DHT22;31152;49.190;8.122;2022-12-29T15:41:59;10.20;99.90
30186;DHT22;31152;49.190;8.122;2022-12-29T15:44:41;10.20;99.90
30186;DHT22;31152;49.190;8.122;2022-12-29T15:47:20;10.10;99.90
30186;DHT22;31152;49.190;8.122;2022-12-29T15:49:53;10.10;99.90
30186;DHT22;31152;49.190;8.122;2022-12-29T15:52:21;10.00;99.90
30186;DHT22;31152;49.190;8.122;2022-12-29T15:54:52;10.00;99.90
30186;DHT22;31152;49.190;8.122;2022-12-29T15:57:26;9.90;99.90
30186;DHT22;31152;49.190;8.122;2022-12-29T15:59:55;9.90;99.90
30186;DHT22;31152;49.190;8.122;2022-12-29T16:02:23;9.90;99.90
30186;DHT22;31152;49.190;8.122;2022-12-29T16:04:51;9.90;99.90
30186;DHT22;31152;49.190;8.122;2022-12-29T16:07:38;9.90;99.90
30186;DHT22;31152;49.190;8.122;2022-12-29T16:10:31;9.90;99.90
30186;DHT22;31152;49.190;8.122;2022-12-29T16:13:24;9.90;99.90
30186;DHT22;31152;49.190;8.122;2022-12-29T16:16:01;9.90;99.90
30186;DHT22;31152;49.190;8.122;2022-12-29T16:18:34;9.90;99.90
30186;DHT22;31152;49.190;8.122;2022-12-29T16:21:03;9.90;99.90
30186;DHT22;31152;49.190;8.122;2022-12-29T16:23:31;9.90;99.90
30186;DHT22;31152;49.190;8.122;2022-12-29T16:25:59;9.90;99.90
30186;DHT22;31152;49.190;8.122;2022-12-29T16:28:40;9.90;99.90
30186;DHT22;31152;49.190;8.122;2022-12-29T16:31:23;9.80;99.90
30186;DHT22;31152;49.190;8.122;2022-12-29T16:33:52;9.80;99.90
30186;DHT22;31152;49.190;8.122;2022-12-29T16:41:58;9.90;99.90
30186;DHT22;31152;49.190;8.122;2022-12-29T16:44:27;9.90;99.90
30186;DHT22;31152;49.190;8.122;2022-12-29T16:49:37;9.90;99.90
30186;DHT22;31152;49.190;8.122;2022-12-29T16:52:28;9.90;99.90
30186;DHT22;31152;49.190;8.122;2022-12-29T16:54:59;9.90;99.90
30186;DHT22;31152;49.190;8.122;2022-12-29T16:57:32;9.90;99.90
30186;DHT22;31152;49.190;8.122;2022-12-29T17:00:04;9.90;99.90
30186;DHT22;31152;49.190;8.122;2022-12-29T17:02:32;10.00;99.90
30186;DHT22;31152;49.190;8.122;2022-12-29T17:05:13;10.00;99.90
30186;DHT22;31152;49.190;8.122;2022-12-29T17:07:40;10.00;99.90
30186;DHT22;31152;49.190;8.122;2022-12-29T17:10:08;10.00;99.90
30186;DHT22;31152;49.190;8.122;2022-12-29T17:12:36;10.00;99.90
30186;DHT22;31152;49.190;8.122;2022-12-29T17:15:09;10.00;99.90
30186;DHT22;31152;49.190;8.122;2022-12-29T17:17:45;9.90;99.90
30186;DHT22;31152;49.190;8.122;2022-12-29T17:20:16;10.00;99.90
30186;DHT22;31152;49.190;8.122;2022-12-29T17:22:47;10.00;99.90
30186;DHT22;31152;49.190;8.122;2022-12-29T17:25:19;10.00;99.90
30186;DHT22;31152;49.190;8.122;2022-12-29T17:27:59;10.00;99.90
30186;DHT22;31152;49.190;8.122;2022-12-29T17:30:32;10.00;99.90
30186;DHT22;31152;49.190;8.122;2022-12-29T17:33:02;9.90;99.90
30186;DHT22;31152;49.190;8.122;2022-12-29T17:35:32;9.90;99.90
30186;DHT22;31152;49.190;8.122;2022-12-29T17:37:59;9.90;99.90
30186;DHT22;31152;49.190;8.122;2022-12-29T17:40:28;9.90;99.90
30186;DHT22;31152;49.190;8.122;2022-12-29T17:42:56;9.90;99.90
30186;DHT22;31152;49.190;8.122;2022-12-29T17:45:28;9.90;99.90
30186;DHT22;31152;49.190;8.122;2022-12-29T17:47:56;9.80;99.90
30186;DHT22;31152;49.190;8.122;2022-12-29T17:50:29;9.80;99.90
30186;DHT22;31152;49.190;8.122;2022-12-29T17:53:02;9.80;99.90
30186;DHT22;31152;49.190;8.122;2022-12-29T17:55:30;9.70;99.90
30186;DHT22;31152;49.190;8.122;2022-12-29T17:58:16;9.70;99.90
30186;DHT22;31152;49.190;8.122;2022-12-29T18:00:44;9.70;99.90
30186;DHT22;31152;49.190;8.122;2022-12-29T18:06:15;9.50;99.90
30186;DHT22;31152;49.190;8.122;2022-12-29T18:08:42;9.60;99.90
30186;DHT22;31152;49.190;8.122;2022-12-29T18:11:24;9.50;99.90
30186;DHT22;31152;49.190;8.122;2022-12-29T18:13:52;9.50;99.90
30186;DHT22;31152;49.190;8.122;2022-12-29T18:16:20;9.50;99.90
30186;DHT22;31152;49.190;8.122;2022-12-29T18:18:50;9.40;99.90
30186;DHT22;31152;49.190;8.122;2022-12-29T18:21:19;9.40;99.90
30186;DHT22;31152;49.190;8.122;2022-12-29T18:23:47;9.40;99.90
30186;DHT22;31152;49.190;8.122;2022-12-29T18:26:22;9.40;99.90
30186;DHT22;31152;49.190;8.122;2022-12-29T18:28:57;9.30;99.90
30186;DHT22;31152;49.190;8.122;2022-12-29T18:31:27;9.20;99.90